Time;durP1;ratioP1;P1;durP2;ratioP2;P2;SDS_P1;SDS_P2;PMS_P1;PMS_P2;Temp;Humidity;BMP_temperature;BMP_pressure;BME280_temperature;BME280_humidity;BME280_pressure;Samples;Min_cycle;Max_cycle;Signal;HPM_P1;HPM_P2
2022/03/26 00:02:54;;;;;;;54.57;22.83;;;;;;;;;;6283890;22;20162;-86
2022/03/26 00:06:00;;;;;;;52.57;21.37;;;;;;;;;;6266030;22;20895;-85
2022/03/26 00:09:06;;;;;;;51.73;21.07;;;;;;;;;;6247684;22;20166;-85
2022/03/26 00:12:11;;;;;;;53.67;22.40;;;;;;;;;;6266467;22;20165;-85
2022/03/26 00:15:18;;;;;;;54.60;21.77;;;;;;;;;;6266164;22;20288;-84
2022/03/26 00:18:23;;;;;;;51.93;21.67;;;;;;;;;;6267794;22;20216;-84
2022/03/26 00:21:28;;;;;;;53.10;21.33;;;;;;;;;;6267689;22;20169;-84
2022/03/26 00:24:33;;;;;;;53.63;20.70;;;;;;;;;;6266732;22;20204;-85
2022/03/26 00:27:38;;;;;;;49.43;20.73;;;;;;;;;;6265457;22;20169;-84
2022/03/26 00:30:44;;;;;;;56.57;20.40;;;;;;;;;;6284905;22;20177;-85
2022/03/26 00:33:51;;;;;;;51.80;20.77;;;;;;;;;;6265650;22;20215;-85
2022/03/26 00:36:57;;;;;;;52.97;22.57;;;;;;;;;;6284951;22;20311;-86
2022/03/26 00:40:02;;;;;;;52.83;21.43;;;;;;;;;;6267201;22;20178;-86
2022/03/26 00:43:07;;;;;;;52.03;21.90;;;;;;;;;;6266498;22;20605;-85
2022/03/26 00:46:14;;;;;;;51.60;21.07;;;;;;;;;;6267320;22;20161;-85
2022/03/26 00:49:19;;;;;;;54.87;21.43;;;;;;;;;;6285136;22;20170;-85
2022/03/26 00:52:24;;;;;;;48.70;20.67;;;;;;;;;;6266726;22;20207;-84
2022/03/26 00:55:29;;;;;;;55.40;21.10;;;;;;;;;;6267183;22;20234;-86
2022/03/26 00:58:35;;;;;;;56.70;22.77;;;;;;;;;;6285692;22;20233;-86
2022/03/26 01:01:41;;;;;;;55.30;21.20;;;;;;;;;;6267644;22;20197;-85
2022/03/26 01:04:46;;;;;;;56.47;20.67;;;;;;;;;;6267566;22;20192;-86
2022/03/26 01:07:52;;;;;;;55.03;22.80;;;;;;;;;;6267952;22;20188;-85
2022/03/26 01:10:58;;;;;;;58.83;21.37;;;;;;;;;;6267406;22;20276;-85
2022/03/26 01:14:03;;;;;;;49.37;21.47;;;;;;;;;;6267016;22;20500;-85
2022/03/26 01:17:09;;;;;;;55.63;23.30;;;;;;;;;;6268256;22;20233;-86
2022/03/26 01:20:16;;;;;;;65.97;22.30;;;;;;;;;;6267385;22;20169;-84
2022/03/26 01:23:21;;;;;;;62.97;23.63;;;;;;;;;;6285253;22;20492;-86
2022/03/26 01:26:26;;;;;;;59.57;23.67;;;;;;;;;;6267170;22;20168;-86
2022/03/26 01:29:31;;;;;;;58.17;22.40;;;;;;;;;;6267292;22;20191;-85
2022/03/26 01:32:37;;;;;;;58.10;22.03;;;;;;;;;;6266942;22;20186;-85
2022/03/26 01:35:43;;;;;;;61.23;23.50;;;;;;;;;;6283297;22;20158;-85
2022/03/26 01:38:49;;;;;;;61.60;22.30;;;;;;;;;;6287961;22;20201;-86
2022/03/26 01:41:53;;;;;;;59.30;22.30;;;;;;;;;;6267163;22;20236;-85
2022/03/26 01:44:59;;;;;;;59.93;22.27;;;;;;;;;;6266378;22;20194;-85
2022/03/26 01:48:05;;;;;;;51.63;20.47;;;;;;;;;;6266570;22;20165;-86
2022/03/26 01:51:18;;;;;;;57.40;21.80;;;;;;;;;;6267223;22;20162;-85
2022/03/26 01:54:23;;;;;;;58.30;21.77;;;;;;;;;;6267144;22;20165;-84
2022/03/26 01:57:29;;;;;;;57.07;21.73;;;;;;;;;;6267612;22;20293;-85
2022/03/26 02:00:35;;;;;;;58.43;21.10;;;;;;;;;;6285037;22;20161;-86
2022/03/26 02:03:42;;;;;;;58.30;22.57;;;;;;;;;;6268267;22;20166;-85
2022/03/26 02:06:47;;;;;;;54.20;21.63;;;;;;;;;;6267768;22;20208;-85
2022/03/26 02:09:52;;;;;;;55.03;23.43;;;;;;;;;;6265977;22;20613;-86
2022/03/26 02:12:58;;;;;;;58.70;21.90;;;;;;;;;;6268176;22;20154;-84
2022/03/26 02:16:04;;;;;;;49.37;20.57;;;;;;;;;;6268174;22;20197;-83
2022/03/26 02:19:10;;;;;;;58.00;22.53;;;;;;;;;;6268054;22;20641;-84
2022/03/26 02:22:17;;;;;;;55.17;21.03;;;;;;;;;;6288874;22;20170;-86
2022/03/26 02:25:21;;;;;;;53.77;20.80;;;;;;;;;;6269545;22;20226;-85
2022/03/26 02:28:27;;;;;;;51.90;21.37;;;;;;;;;;6251693;22;20165;-84
2022/03/26 02:31:32;;;;;;;56.43;21.27;;;;;;;;;;6269273;22;20185;-86
2022/03/26 02:34:38;;;;;;;58.20;21.83;;;;;;;;;;6286706;22;20162;-85
2022/03/26 02:37:44;;;;;;;61.23;22.57;;;;;;;;;;6286037;22;20190;-85
2022/03/26 02:40:51;;;;;;;57.40;21.83;;;;;;;;;;6270594;22;20170;-84
2022/03/26 02:43:56;;;;;;;51.27;21.03;;;;;;;;;;6267503;22;20169;-85
2022/03/26 02:47:02;;;;;;;60.83;21.67;;;;;;;;;;6268708;22;20141;-85
2022/03/26 02:50:09;;;;;;;61.50;22.80;;;;;;;;;;6266957;22;20170;-84
2022/03/26 02:53:15;;;;;;;68.73;23.67;;;;;;;;;;6267907;22;20186;-84
2022/03/26 02:56:20;;;;;;;69.57;23.57;;;;;;;;;;6266022;22;20205;-85
2022/03/26 02:59:26;;;;;;;60.60;22.97;;;;;;;;;;6268019;22;20169;-84
2022/03/26 03:02:31;;;;;;;60.00;23.60;;;;;;;;;;6268550;22;20625;-84
2022/03/26 03:05:36;;;;;;;54.60;22.17;;;;;;;;;;6269024;22;20281;-85
2022/03/26 03:08:43;;;;;;;55.07;22.67;;;;;;;;;;6267297;22;20173;-83
2022/03/26 03:11:48;;;;;;;59.20;23.87;;;;;;;;;;6266886;22;20301;-86
2022/03/26 03:14:54;;;;;;;65.17;23.70;;;;;;;;;;6267418;22;20212;-85
2022/03/26 03:17:58;;;;;;;70.37;24.07;;;;;;;;;;6265630;22;20194;-84
2022/03/26 03:21:03;;;;;;;69.47;24.40;;;;;;;;;;6286158;22;20149;-84
2022/03/26 03:24:10;;;;;;;68.83;24.73;;;;;;;;;;6285740;22;20609;-85
2022/03/26 03:27:15;;;;;;;59.53;22.60;;;;;;;;;;6268357;22;20161;-85
2022/03/26 03:30:20;;;;;;;59.67;21.77;;;;;;;;;;6266942;22;20252;-85
2022/03/26 03:33:26;;;;;;;64.63;23.77;;;;;;;;;;6268693;22;20154;-86
2022/03/26 03:36:31;;;;;;;57.43;22.13;;;;;;;;;;6267241;22;20212;-85
2022/03/26 03:39:38;;;;;;;67.07;23.30;;;;;;;;;;6285121;22;20197;-86
2022/03/26 03:42:42;;;;;;;58.90;23.20;;;;;;;;;;6268703;22;20234;-84
2022/03/26 03:45:48;;;;;;;58.50;22.67;;;;;;;;;;6269527;22;20213;-85
2022/03/26 03:48:55;;;;;;;64.00;22.93;;;;;;;;;;6269594;22;20165;-85
2022/03/26 03:52:04;;;;;;;63.37;23.63;;;;;;;;;;6267565;22;20277;-84
2022/03/26 03:55:11;;;;;;;60.30;23.63;;;;;;;;;;6271484;22;20233;-87
2022/03/26 03:58:16;;;;;;;61.50;22.27;;;;;;;;;;6272716;22;20236;-85
2022/03/26 04:01:22;;;;;;;58.43;22.23;;;;;;;;;;6293598;22;20247;-84
2022/03/26 04:04:27;;;;;;;65.67;22.30;;;;;;;;;;6270318;22;20165;-86
2022/03/26 04:07:33;;;;;;;58.33;22.93;;;;;;;;;;6268188;22;20282;-85
2022/03/26 04:10:39;;;;;;;58.83;23.87;;;;;;;;;;6286251;22;20168;-85
2022/03/26 04:13:46;;;;;;;63.63;22.90;;;;;;;;;;6268166;22;20166;-85
2022/03/26 04:16:51;;;;;;;67.17;23.43;;;;;;;;;;6268518;22;20173;-86
2022/03/26 04:19:56;;;;;;;64.67;22.87;;;;;;;;;;6268962;22;20242;-84
2022/03/26 04:23:01;;;;;;;66.40;23.13;;;;;;;;;;6268999;22;20292;-85
2022/03/26 04:26:09;;;;;;;64.17;24.60;;;;;;;;;;6268254;22;20166;-85
2022/03/26 04:29:15;;;;;;;64.23;24.23;;;;;;;;;;6271562;22;20145;-85
2022/03/26 04:32:20;;;;;;;66.27;24.13;;;;;;;;;;6270051;22;20204;-84
2022/03/26 04:35:26;;;;;;;58.93;21.90;;;;;;;;;;6287201;22;20169;-86
2022/03/26 04:38:31;;;;;;;61.27;23.20;;;;;;;;;;6269520;22;20236;-86
2022/03/26 04:41:36;;;;;;;60.30;22.27;;;;;;;;;;6267346;22;20161;-85
2022/03/26 04:44:41;;;;;;;65.33;24.00;;;;;;;;;;6268417;22;20162;-85
2022/03/26 04:47:47;;;;;;;63.77;23.20;;;;;;;;;;6270844;22;20178;-84
2022/03/26 04:50:52;;;;;;;53.40;21.40;;;;;;;;;;6290054;22;20216;-85
2022/03/26 04:53:57;;;;;;;69.30;21.63;;;;;;;;;;6269253;22;20169;-85
2022/03/26 04:57:03;;;;;;;58.23;22.37;;;;;;;;;;6269734;22;20221;-85
2022/03/26 05:00:09;;;;;;;60.37;21.23;;;;;;;;;;6267354;22;20200;-86
2022/03/26 05:03:19;;;;;;;56.90;21.40;;;;;;;;;;6266409;22;20222;-85
2022/03/26 05:06:24;;;;;;;52.37;18.17;;;;;;;;;;6267988;22;20166;-84
2022/03/26 05:09:29;;;;;;;54.87;20.67;;;;;;;;;;6287195;22;20497;-84
2022/03/26 05:12:35;;;;;;;64.43;23.43;;;;;;;;;;6267583;22;20165;-84
2022/03/26 05:15:40;;;;;;;54.20;21.33;;;;;;;;;;6269558;22;20534;-84
2022/03/26 05:18:52;;;;;;;59.23;21.67;;;;;;;;;;6270026;22;20186;-84
2022/03/26 05:21:58;;;;;;;62.33;22.43;;;;;;;;;;6288646;22;20205;-83
2022/03/26 05:25:04;;;;;;;64.10;23.57;;;;;;;;;;6269890;22;20242;-86
2022/03/26 05:28:11;;;;;;;51.43;21.13;;;;;;;;;;6267352;22;20177;-85
2022/03/26 05:31:16;;;;;;;61.00;21.83;;;;;;;;;;6268557;22;20189;-84
2022/03/26 05:34:21;;;;;;;62.67;23.53;;;;;;;;;;6285205;22;20170;-87
2022/03/26 05:37:27;;;;;;;58.40;21.67;;;;;;;;;;6267493;22;20149;-85
2022/03/26 05:40:32;;;;;;;53.77;22.10;;;;;;;;;;6265804;22;20170;-84
2022/03/26 05:43:38;;;;;;;56.10;22.43;;;;;;;;;;6268423;22;20166;-86
2022/03/26 05:46:44;;;;;;;53.97;21.17;;;;;;;;;;6266128;22;20170;-86
2022/03/26 05:49:49;;;;;;;58.37;21.90;;;;;;;;;;6268085;22;20190;-86
2022/03/26 05:52:54;;;;;;;50.57;20.97;;;;;;;;;;6287535;22;20150;-84
2022/03/26 05:55:59;;;;;;;58.40;21.43;;;;;;;;;;6269570;22;20185;-85
2022/03/26 05:59:06;;;;;;;60.00;22.43;;;;;;;;;;6269705;22;20272;-86
2022/03/26 06:02:12;;;;;;;54.83;22.03;;;;;;;;;;6270587;22;20166;-85
2022/03/26 06:05:17;;;;;;;55.53;21.23;;;;;;;;;;6286490;22;20554;-85
2022/03/26 06:08:22;;;;;;;54.60;21.90;;;;;;;;;;6269441;22;20244;-86
2022/03/26 06:11:27;;;;;;;59.27;21.30;;;;;;;;;;6272242;22;20184;-84
2022/03/26 06:14:34;;;;;;;51.77;20.93;;;;;;;;;;6271131;22;20162;-85
2022/03/26 06:17:39;;;;;;;59.13;22.07;;;;;;;;;;6270413;22;20281;-85
2022/03/26 06:20:44;;;;;;;56.03;21.70;;;;;;;;;;6271620;22;20700;-86
2022/03/26 06:23:50;;;;;;;50.83;21.47;;;;;;;;;;6270303;22;20636;-84
2022/03/26 06:26:55;;;;;;;53.63;20.70;;;;;;;;;;6268380;22;20660;-85
2022/03/26 06:30:01;;;;;;;59.40;20.33;;;;;;;;;;6269768;22;20165;-85
2022/03/26 06:33:06;;;;;;;59.83;22.23;;;;;;;;;;6269787;22;20492;-83
2022/03/26 06:36:13;;;;;;;52.73;20.63;;;;;;;;;;6267885;22;20165;-85
2022/03/26 06:39:19;;;;;;;53.83;21.07;;;;;;;;;;6268272;22;20205;-85
2022/03/26 06:42:24;;;;;;;55.40;20.17;;;;;;;;;;6268499;22;20150;-85
2022/03/26 06:45:30;;;;;;;51.30;20.63;;;;;;;;;;6269587;22;20165;-86
2022/03/26 06:48:36;;;;;;;58.60;22.70;;;;;;;;;;6290167;22;20314;-85
2022/03/26 06:51:41;;;;;;;64.27;22.93;;;;;;;;;;6270386;22;20501;-85
2022/03/26 06:54:46;;;;;;;94.80;36.83;;;;;;;;;;6269517;22;20166;-85
2022/03/26 06:57:51;;;;;;;54.53;20.83;;;;;;;;;;6269734;22;20161;-84
2022/03/26 07:00:58;;;;;;;62.27;22.40;;;;;;;;;;6268506;22;20165;-86
2022/03/26 07:04:05;;;;;;;60.33;21.40;;;;;;;;;;6268613;22;20732;-84
2022/03/26 07:07:13;;;;;;;57.17;22.20;;;;;;;;;;6268435;22;20484;-85
2022/03/26 07:10:18;;;;;;;61.13;22.47;;;;;;;;;;6286657;22;20166;-84
2022/03/26 07:13:23;;;;;;;55.93;21.43;;;;;;;;;;6267025;22;20228;-86
2022/03/26 07:16:30;;;;;;;60.43;22.33;;;;;;;;;;6266472;22;20188;-84
2022/03/26 07:19:35;;;;;;;52.63;21.20;;;;;;;;;;6268128;22;20250;-86
2022/03/26 07:22:40;;;;;;;47.97;20.23;;;;;;;;;;6268503;22;20181;-83
2022/03/26 07:25:45;;;;;;;54.97;20.77;;;;;;;;;;6267883;22;20165;-84
2022/03/26 07:28:50;;;;;;;56.60;22.37;;;;;;;;;;6269678;22;20259;-85
2022/03/26 07:31:57;;;;;;;56.17;21.90;;;;;;;;;;6269368;22;20190;-85
2022/03/26 07:35:02;;;;;;;53.57;21.97;;;;;;;;;;6269852;22;20182;-84
2022/03/26 07:38:09;;;;;;;51.50;21.97;;;;;;;;;;6270231;22;20208;-85
2022/03/26 07:41:14;;;;;;;53.17;22.63;;;;;;;;;;6269407;22;20174;-86
2022/03/26 07:44:19;;;;;;;58.83;24.10;;;;;;;;;;6285884;22;20169;-85
2022/03/26 07:47:26;;;;;;;62.50;25.17;;;;;;;;;;6267150;22;20724;-85
2022/03/26 07:50:34;;;;;;;60.07;22.47;;;;;;;;;;6267778;22;20248;-85
2022/03/26 07:53:39;;;;;;;57.03;21.90;;;;;;;;;;6288740;22;20149;-85
2022/03/26 07:56:44;;;;;;;56.77;23.53;;;;;;;;;;6269810;22;20504;-85
2022/03/26 07:59:49;;;;;;;52.27;21.57;;;;;;;;;;6270910;22;20707;-86
2022/03/26 08:02:58;;;;;;;48.03;21.50;;;;;;;;;;6269404;22;20157;-85
2022/03/26 08:06:03;;;;;;;54.37;21.77;;;;;;;;;;6268845;22;20176;-85
2022/03/26 08:09:08;;;;;;;49.30;20.93;;;;;;;;;;6269229;22;20169;-83
2022/03/26 08:12:13;;;;;;;53.20;21.67;;;;;;;;;;6269960;22;20166;-86
2022/03/26 08:15:18;;;;;;;61.40;23.13;;;;;;;;;;6269698;22;20170;-85
2022/03/26 08:18:25;;;;;;;52.70;21.97;;;;;;;;;;6268947;22;20224;-85
2022/03/26 08:21:32;;;;;;;48.73;21.23;;;;;;;;;;6267784;22;20170;-85
2022/03/26 08:24:37;;;;;;;50.10;19.83;;;;;;;;;;6269421;22;20244;-85
2022/03/26 08:27:43;;;;;;;50.42;18.88;;;;;;;;;;6269898;22;20183;-86
2022/03/26 08:30:48;;;;;;;49.05;19.55;;;;;;;;;;6288177;22;20240;-86
2022/03/26 08:33:55;;;;;;;48.65;19.90;;;;;;;;;;6269774;22;20239;-88
2022/03/26 08:37:00;;;;;;;44.47;19.67;;;;;;;;;;6267301;22;20602;-86
2022/03/26 08:40:06;;;;;;;50.17;20.50;;;;;;;;;;6269710;22;20181;-89
2022/03/26 08:43:12;;;;;;;46.35;19.45;;;;;;;;;;6268437;22;20243;-87
2022/03/26 08:46:18;;;;;;;46.35;20.85;;;;;;;;;;6269522;22;20213;-88
2022/03/26 08:49:28;;;;;;;45.03;20.10;;;;;;;;;;6287410;22;20528;-86
2022/03/26 08:52:34;;;;;;;47.60;20.55;;;;;;;;;;6268519;22;20169;-86
2022/03/26 08:55:39;;;;;;;41.90;19.88;;;;;;;;;;6270351;22;20618;-85
2022/03/26 08:58:44;;;;;;;38.92;19.65;;;;;;;;;;6268817;22;20237;-88
2022/03/26 09:01:49;;;;;;;35.20;18.38;;;;;;;;;;6270764;22;20189;-87
2022/03/26 09:05:09;;;;;;;39.58;18.63;;;;;;;;;;6289586;22;20547;-86
2022/03/26 09:11:43;;;;;;;36.78;18.10;;;;;;;;;;6289384;22;20170;-87
2022/03/26 09:14:48;;;;;;;36.38;17.88;;;;;;;;;;6270779;22;20622;-87
2022/03/26 09:17:53;;;;;;;35.80;17.35;;;;;;;;;;6289196;22;20173;-87
2022/03/26 09:20:58;;;;;;;34.83;16.35;;;;;;;;;;6270925;22;20177;-87
2022/03/26 09:24:05;;;;;;;30.27;15.68;;;;;;;;;;6270168;22;20158;-86
2022/03/26 09:27:10;;;;;;;37.30;17.33;;;;;;;;;;6286390;22;20166;-87
2022/03/26 09:30:16;;;;;;;29.60;15.43;;;;;;;;;;6268341;22;20177;-85
2022/03/26 09:33:22;;;;;;;32.30;15.98;;;;;;;;;;6272761;22;20158;-87
2022/03/26 09:36:27;;;;;;;34.70;16.35;;;;;;;;;;6269516;22;20181;-85
2022/03/26 09:39:33;;;;;;;28.75;15.80;;;;;;;;;;6271777;22;20613;-87
2022/03/26 09:42:37;;;;;;;37.70;16.70;;;;;;;;;;6270633;22;20189;-85
2022/03/26 09:45:43;;;;;;;35.33;16.55;;;;;;;;;;6271847;22;20166;-86
2022/03/26 09:48:49;;;;;;;39.35;17.55;;;;;;;;;;6272738;22;20186;-86
2022/03/26 09:51:56;;;;;;;38.58;17.95;;;;;;;;;;6272327;22;20165;-87
2022/03/26 09:55:03;;;;;;;59.50;18.40;;;;;;;;;;6272253;22;20204;-86
2022/03/26 09:58:08;;;;;;;38.40;17.70;;;;;;;;;;6273266;22;20652;-88
2022/03/26 10:01:13;;;;;;;43.63;18.45;;;;;;;;;;6272623;22;20161;-86
2022/03/26 10:04:18;;;;;;;37.38;18.13;;;;;;;;;;6271326;22;20158;-88
2022/03/26 10:07:30;;;;;;;41.78;18.95;;;;;;;;;;6274084;22;20167;-87
2022/03/26 10:10:44;;;;;;;37.80;18.65;;;;;;;;;;6289061;22;20217;-87
2022/03/26 10:13:49;;;;;;;36.85;18.38;;;;;;;;;;6273973;22;20189;-88
2022/03/26 10:16:55;;;;;;;42.92;20.95;;;;;;;;;;6271551;22;20165;-87
2022/03/26 10:20:01;;;;;;;39.35;18.88;;;;;;;;;;6288138;22;20234;-87
2022/03/26 10:23:06;;;;;;;38.00;19.08;;;;;;;;;;6270789;22;20199;-87
2022/03/26 10:26:13;;;;;;;38.47;19.77;;;;;;;;;;6269704;22;20236;-86
2022/03/26 10:29:19;;;;;;;40.90;20.25;;;;;;;;;;6269835;22;20163;-87
2022/03/26 10:36:03;;;;;;;44.10;22.08;;;;;;;;;;6119911;23;20197;-87
2022/03/26 10:39:09;;;;;;;42.28;23.23;;;;;;;;;;6137433;23;20184;-86
2022/03/26 10:42:15;;;;;;;42.42;21.92;;;;;;;;;;6288800;22;20233;-88
2022/03/26 23:09:34;;;;;;;43.53;15.83;;;;;;;;;;6302426;22;20217;-86
2022/03/26 23:12:39;;;;;;;41.10;15.00;;;;;;;;;;6298238;22;20169;-84
2022/03/26 23:15:44;;;;;;;34.93;14.77;;;;;;;;;;6297986;22;20169;-84
2022/03/26 23:18:49;;;;;;;35.97;14.47;;;;;;;;;;6297777;22;20161;-84
2022/03/26 23:21:55;;;;;;;41.57;14.37;;;;;;;;;;6314407;22;20307;-84
2022/03/26 23:25:02;;;;;;;37.40;14.03;;;;;;;;;;6297076;22;20177;-84
2022/03/26 23:28:08;;;;;;;35.27;14.27;;;;;;;;;;6295558;22;20161;-84
2022/03/26 23:31:14;;;;;;;35.20;13.57;;;;;;;;;;6297081;22;20227;-84
2022/03/26 23:34:19;;;;;;;38.20;13.07;;;;;;;;;;6312978;22;20165;-84
2022/03/26 23:37:25;;;;;;;38.23;13.90;;;;;;;;;;6298390;22;20161;-84
2022/03/26 23:40:32;;;;;;;36.60;13.20;;;;;;;;;;6297469;22;20260;-84
2022/03/26 23:43:37;;;;;;;30.93;13.53;;;;;;;;;;6297654;22;20629;-85
2022/03/26 23:46:42;;;;;;;36.60;13.57;;;;;;;;;;6313929;22;20575;-85
2022/03/26 23:49:47;;;;;;;31.83;12.97;;;;;;;;;;6307628;22;20165;-85
2022/03/26 23:52:52;;;;;;;34.67;12.70;;;;;;;;;;6297854;22;20221;-86
2022/03/26 23:55:59;;;;;;;34.60;12.17;;;;;;;;;;6298431;22;20187;-85
2022/03/26 23:59:04;;;;;;;30.50;13.30;;;;;;;;;;6317747;22;20539;-84
